No requiere especial atencion con respecto al clima.   -   No hay Alarmas
   No requiere especial atencion con respecto al clima.   -   No hay Alarmas

Nearby METAR Reports

 

KSJC - San Jose, California, USA
Distance from station: NE 14km
Actualización: 24/06/2021 05:53
Few Clouds
Few Clouds
 Viento del NNO
Viento: NNO 19 km/h
Temperatura: 18°C
Rocío: 12°C
Humedad: 68%
Barómetro: 1014.6 hPa
Clouds: Few Clouds
Visibility: 16 km
Cloud details: Few Clouds 488 m
Few Clouds 975 m
2021/06/24 03:53 KSJC 240353Z 34010KT 10SM FEW016 FEW032 18/12 A2996 RMK AO2 SLP144 T01780117
KNUQ - Moffett Nas/Mtn, California, USA
Distance from station: N 14km
Actualización: 24/06/2021 05:55
Despejado
Despejado
 Viento del N
Viento: N 20 km/h
Temperatura: 18°C
Rocío: 12°C
Humedad: 68%
Barómetro: 1014.6 hPa
Clouds: Despejado
Visibility: 16 km
2021/06/24 03:55 KNUQ 240355Z AUTO 35011KT 10SM CLR 18/12 A2996 RMK AO2
 
KPAO - Palo Alto, California, USA
Distance from station: NNO 23km
Actualización: 24/06/2021 05:47
Few Clouds
Few Clouds
 Viento del NNO
Viento: NNO 20 km/h
Temperatura: 17°C
Rocío: 11°C
Humedad: 68%
Barómetro: 1014.6 hPa
Clouds: Few Clouds
Visibility: 16 km
Cloud details: Few Clouds 762 m
2021/06/24 03:47 KPAO 240347Z 33011KT 10SM FEW025 17/11 A2996 RMK LAST
KRHV - San Jose/Reid, California, USA
Distance from station: ENE 19km
Actualización: 24/06/2021 05:47
Few Clouds
Few Clouds
 Viento del NNO
Viento: NNO 17 km/h, Racha: 30 km/h
Temperatura: 18°C
Rocío: 12°C
Humedad: 68%
Barómetro: 1014.6 hPa
Clouds: Few Clouds
Visibility: 16 km
Cloud details: Few Clouds 610 m
2021/06/24 03:47 KRHV 240347Z 33009G16KT 10SM FEW020 18/12 A2996
 
KOAK - Oakland, California, USA
Distance from station: NNO 50km
Actualización: 24/06/2021 05:53
Muy nuboso
Muy nuboso
 Viento del O
Viento: O 20 km/h
Temperatura: 17°C
Rocío: 12°C
Humedad: 73%
Barómetro: 1015.2 hPa
Clouds: Muy nuboso
Visibility: 16 km
Cloud details: Few Clouds 244 m
Muy nuboso 549 m
2021/06/24 03:53 KOAK 240353Z 28011KT 10SM FEW008 BKN018 17/12 A2998 RMK AO2 SLP150 T01720117
KSQL - San Carlos Airpo, California, USA
Distance from station: NO 34km
Actualización: 24/06/2021 05:47
Few Clouds
Few Clouds
 Viento del ONO
Viento: ONO 11 km/h
Temperatura: 17°C
Rocío: 12°C
Humedad: 73%
Barómetro: 1014.6 hPa
Clouds: Few Clouds
Visibility: 16 km
Cloud details: Few Clouds 762 m
2021/06/24 03:47 KSQL 240347Z 30006KT 10SM FEW025 17/12 A2996 RMK LAST
 
KSFO - San Francisco, California, USA
Distance from station: NO 49km
Actualización: 24/06/2021 05:56
Muy nuboso
Muy nuboso
 Viento del O
Viento: O 20 km/h
Temperatura: 18°C
Rocío: 12°C
Humedad: 68%
Barómetro: 1014.6 hPa
Clouds: Muy nuboso
Visibility: 16 km
Cloud details: Few Clouds 244 m
Muy nuboso 579 m
2021/06/24 03:56 KSFO 240356Z 26011KT 10SM FEW008 BKN019 18/12 A2996 RMK AO2 SLP146 T01830117
KE16 - San Martin, California, USA
Distance from station: ESE 43km
Actualización: 24/06/2021 05:55

 Viento del SSE
Viento: SSE 15 km/h
Temperatura: 17°C
Rocío: 12°C
Humedad: 73%
Barómetro: 1015.2 hPa
Visibility: 16 km
2021/06/24 03:55 KE16 240355Z AUTO 15008KT 10SM 17/12 A2998 RMK AO2 PWINO PNO
 
KWVI - Watsonville, California, USA
Distance from station: SSE 44km
Actualización: 24/06/2021 05:53
Despejado
Despejado
 Viento del OSO
Viento: OSO 9 km/h
Temperatura: 14°C
Rocío: 12°C
Humedad: 88%
Barómetro: 1015.6 hPa
Clouds: Despejado
Visibility: 16 km
2021/06/24 03:53 KWVI 240353Z AUTO 25005KT 10SM CLR 14/12 A2999 RMK AO2 SLP155 T01440122
KHAF - Half Moon Bay, California, USA
Distance from station: ONO 50km
Actualización: 24/06/2021 05:55
Cubierto
Cubierto
 Viento del calm
Viento: Calma
Temperatura: 15°C
Rocío: 13°C
Humedad: 88%
Barómetro: 1015.6 hPa
Clouds: Cubierto
Visibility: 16 km
Cloud details: Cubierto 640 m
2021/06/24 03:55 KHAF 240355Z AUTO 00000KT 10SM OVC021 15/13 A2999 RMK AO2
 
KHWD - Hayward, California, USA
Distance from station: N 44km
Actualización: 24/06/2021 05:54
Muy nuboso
Muy nuboso
 Viento del NO
Viento: NO 22 km/h
Temperatura: 16°C
Rocío: 12°C
Humedad: 77%
Barómetro: 1014.6 hPa
Clouds: Muy nuboso
Visibility: 16 km
Cloud details: Muy nuboso 518 m
2021/06/24 03:54 KHWD 240354Z 31012KT 10SM BKN017 16/12 A2996 RMK AO2 SLP155 T01610122
KLVK - Livermore, California, USA
Distance from station: NNE 51km
Actualización: 24/06/2021 05:53
Despejado
Despejado
 Viento del O
Viento: O 19 km/h
Temperatura: 17°C
Rocío: 11°C
Humedad: 68%
Barómetro: 1014.2 hPa
Clouds: Despejado
Visibility: 16 km
2021/06/24 03:53 KLVK 240353Z 28010KT 10SM CLR 17/11 A2995 RMK AO2 SLP137 T01670111